sensor_id;sensor_type;location;lat;lon;timestamp;pressure;altitude;pressure_sealevel;temperature;humidity
10518;BME280;5307;42.548;22.968;2023-03-11T00:00:36;92128.91;;;9.27;100.00
10518;BME280;5307;42.548;22.968;2023-03-11T00:03:06;92126.84;;;9.16;100.00
10518;BME280;5307;42.548;22.968;2023-03-11T00:05:35;92133.88;;;9.28;100.00
10518;BME280;5307;42.548;22.968;2023-03-11T00:08:04;92129.16;;;9.23;100.00
10518;BME280;5307;42.548;22.968;2023-03-11T00:10:33;92116.06;;;9.27;100.00
10518;BME280;5307;42.548;22.968;2023-03-11T00:13:01;92121.94;;;9.20;100.00
10518;BME280;5307;42.548;22.968;2023-03-11T00:15:28;92116.72;;;9.16;100.00
10518;BME280;5307;42.548;22.968;2023-03-11T00:17:55;92114.09;;;9.02;100.00
10518;BME280;5307;42.548;22.968;2023-03-11T00:20:25;92106.00;;;9.13;100.00
10518;BME280;5307;42.548;22.968;2023-03-11T00:23:05;92099.41;;;8.93;100.00
10518;BME280;5307;42.548;22.968;2023-03-11T00:25:33;92096.03;;;9.04;100.00
10518;BME280;5307;42.548;22.968;2023-03-11T00:28:00;92097.19;;;8.98;100.00
10518;BME280;5307;42.548;22.968;2023-03-11T00:30:28;92093.63;;;9.12;100.00
10518;BME280;5307;42.548;22.968;2023-03-11T00:32:56;92094.84;;;9.11;100.00
10518;BME280;5307;42.548;22.968;2023-03-11T00:35:26;92094.59;;;9.09;100.00
10518;BME280;5307;42.548;22.968;2023-03-11T00:37:57;92106.31;;;9.15;100.00
10518;BME280;5307;42.548;22.968;2023-03-11T00:40:28;92105.47;;;9.09;100.00
10518;BME280;5307;42.548;22.968;2023-03-11T00:42:58;92118.13;;;9.12;100.00
10518;BME280;5307;42.548;22.968;2023-03-11T00:45:26;92101.97;;;9.03;100.00
10518;BME280;5307;42.548;22.968;2023-03-11T00:47:53;92098.53;;;9.08;100.00
10518;BME280;5307;42.548;22.968;2023-03-11T00:50:22;92112.00;;;9.17;100.00
10518;BME280;5307;42.548;22.968;2023-03-11T00:52:51;92092.84;;;9.06;100.00
10518;BME280;5307;42.548;22.968;2023-03-11T00:55:20;92088.13;;;8.80;100.00
10518;BME280;5307;42.548;22.968;2023-03-11T00:57:53;92087.50;;;8.91;100.00
10518;BME280;5307;42.548;22.968;2023-03-11T01:00:21;92088.50;;;8.93;100.00
10518;BME280;5307;42.548;22.968;2023-03-11T01:02:49;92081.88;;;9.26;100.00
10518;BME280;5307;42.548;22.968;2023-03-11T01:05:18;92069.59;;;9.10;100.00
10518;BME280;5307;42.548;22.968;2023-03-11T01:07:46;92066.19;;;8.89;100.00
10518;BME280;5307;42.548;22.968;2023-03-11T01:10:15;92066.94;;;8.90;100.00
10518;BME280;5307;42.548;22.968;2023-03-11T01:12:42;92063.50;;;8.69;100.00
10518;BME280;5307;42.548;22.968;2023-03-11T01:15:15;92066.66;;;8.62;100.00
10518;BME280;5307;42.548;22.968;2023-03-11T01:17:43;92051.66;;;8.46;100.00
10518;BME280;5307;42.548;22.968;2023-03-11T01:20:11;92056.13;;;8.49;100.00
10518;BME280;5307;42.548;22.968;2023-03-11T01:22:38;92051.44;;;8.50;100.00
10518;BME280;5307;42.548;22.968;2023-03-11T01:25:05;92045.84;;;8.59;100.00
10518;BME280;5307;42.548;22.968;2023-03-11T01:27:36;92043.66;;;8.63;100.00
10518;BME280;5307;42.548;22.968;2023-03-11T01:30:03;92048.63;;;8.65;100.00
10518;BME280;5307;42.548;22.968;2023-03-11T01:32:30;92051.13;;;8.68;100.00
10518;BME280;5307;42.548;22.968;2023-03-11T01:34:57;92048.75;;;8.76;100.00
10518;BME280;5307;42.548;22.968;2023-03-11T01:37:26;92048.63;;;8.65;100.00
10518;BME280;5307;42.548;22.968;2023-03-11T01:39:53;92049.22;;;8.74;100.00
10518;BME280;5307;42.548;22.968;2023-03-11T01:42:20;92060.00;;;8.63;100.00
10518;BME280;5307;42.548;22.968;2023-03-11T01:44:50;92067.88;;;8.61;100.00
10518;BME280;5307;42.548;22.968;2023-03-11T01:47:37;92067.19;;;8.66;100.00
10518;BME280;5307;42.548;22.968;2023-03-11T01:50:10;92063.47;;;8.63;100.00
10518;BME280;5307;42.548;22.968;2023-03-11T01:52:40;92067.06;;;8.55;100.00
10518;BME280;5307;42.548;22.968;2023-03-11T01:55:08;92067.88;;;8.61;100.00
10518;BME280;5307;42.548;22.968;2023-03-11T01:57:37;92073.06;;;8.59;100.00
10518;BME280;5307;42.548;22.968;2023-03-11T02:00:11;92072.78;;;8.57;100.00
10518;BME280;5307;42.548;22.968;2023-03-11T02:02:41;92080.66;;;8.55;100.00
10518;BME280;5307;42.548;22.968;2023-03-11T02:05:09;92083.78;;;8.68;100.00
10518;BME280;5307;42.548;22.968;2023-03-11T02:07:37;92093.03;;;8.56;100.00
10518;BME280;5307;42.548;22.968;2023-03-11T02:10:06;92067.34;;;8.37;100.00
10518;BME280;5307;42.548;22.968;2023-03-11T02:12:34;92095.28;;;8.57;100.00
10518;BME280;5307;42.548;22.968;2023-03-11T02:15:09;92096.66;;;8.47;100.00
10518;BME280;5307;42.548;22.968;2023-03-11T02:17:39;92104.41;;;8.54;100.00
10518;BME280;5307;42.548;22.968;2023-03-11T02:20:19;92107.81;;;8.49;100.00
10518;BME280;5307;42.548;22.968;2023-03-11T02:22:49;92107.72;;;8.44;100.00
10518;BME280;5307;42.548;22.968;2023-03-11T02:25:26;92111.13;;;8.39;100.00
10518;BME280;5307;42.548;22.968;2023-03-11T02:28:06;92089.22;;;8.27;100.00
10518;BME280;5307;42.548;22.968;2023-03-11T02:30:54;92106.44;;;8.39;100.00
10518;BME280;5307;42.548;22.968;2023-03-11T02:33:24;92112.09;;;8.36;100.00
10518;BME280;5307;42.548;22.968;2023-03-11T02:35:53;92118.41;;;8.47;100.00
10518;BME280;5307;42.548;22.968;2023-03-11T02:38:21;92115.63;;;8.42;100.00
10518;BME280;5307;42.548;22.968;2023-03-11T02:40:53;92129.34;;;8.32;100.00
10518;BME280;5307;42.548;22.968;2023-03-11T02:43:32;92116.38;;;8.42;100.00
10518;BME280;5307;42.548;22.968;2023-03-11T02:46:03;92114.81;;;8.36;100.00
10518;BME280;5307;42.548;22.968;2023-03-11T02:48:30;92108.16;;;8.37;100.00
10518;BME280;5307;42.548;22.968;2023-03-11T02:50:58;92109.84;;;8.34;100.00
10518;BME280;5307;42.548;22.968;2023-03-11T02:53:27;92108.16;;;8.37;100.00
10518;BME280;5307;42.548;22.968;2023-03-11T02:55:55;92116.44;;;8.48;100.00
10518;BME280;5307;42.548;22.968;2023-03-11T02:58:22;92116.84;;;8.41;100.00
10518;BME280;5307;42.548;22.968;2023-03-11T03:00:50;92106.97;;;8.43;100.00
10518;BME280;5307;42.548;22.968;2023-03-11T03:03:17;92123.50;;;8.40;100.00
10518;BME280;5307;42.548;22.968;2023-03-11T03:05:44;92120.19;;;8.50;100.00
10518;BME280;5307;42.548;22.968;2023-03-11T03:08:11;92117.53;;;8.56;100.00
10518;BME280;5307;42.548;22.968;2023-03-11T03:10:38;92109.78;;;8.49;100.00
10518;BME280;5307;42.548;22.968;2023-03-11T03:13:05;92114.00;;;8.50;100.00
10518;BME280;5307;42.548;22.968;2023-03-11T03:15:32;92106.63;;;8.56;100.00
10518;BME280;5307;42.548;22.968;2023-03-11T03:18:00;92105.75;;;8.44;100.00
10518;BME280;5307;42.548;22.968;2023-03-11T03:20:26;92107.53;;;8.47;100.00
10518;BME280;5307;42.548;22.968;2023-03-11T03:22:54;92102.84;;;8.48;100.00
10518;BME280;5307;42.548;22.968;2023-03-11T03:25:20;92108.03;;;8.46;100.00
10518;BME280;5307;42.548;22.968;2023-03-11T03:27:48;92103.25;;;8.41;100.00
10518;BME280;5307;42.548;22.968;2023-03-11T03:30:15;92097.53;;;8.39;100.00
10518;BME280;5307;42.548;22.968;2023-03-11T03:32:42;92110.38;;;8.38;100.00
10518;BME280;5307;42.548;22.968;2023-03-11T03:35:10;92103.81;;;8.45;100.00
10518;BME280;5307;42.548;22.968;2023-03-11T03:37:37;92099.56;;;8.44;100.00
10518;BME280;5307;42.548;22.968;2023-03-11T03:40:05;92091.41;;;8.44;100.00
10518;BME280;5307;42.548;22.968;2023-03-11T03:42:33;92097.06;;;8.40;100.00
10518;BME280;5307;42.548;22.968;2023-03-11T03:45:01;92089.59;;;8.35;100.00
10518;BME280;5307;42.548;22.968;2023-03-11T03:47:28;92093.53;;;8.34;100.00
10518;BME280;5307;42.548;22.968;2023-03-11T03:49:54;92094.97;;;8.50;100.00
10518;BME280;5307;42.548;22.968;2023-03-11T03:52:23;92083.72;;;8.42;100.00
10518;BME280;5307;42.548;22.968;2023-03-11T03:54:49;92091.28;;;8.53;100.00
10518;BME280;5307;42.548;22.968;2023-03-11T03:57:19;92094.22;;;8.49;100.00
10518;BME280;5307;42.548;22.968;2023-03-11T03:59:46;92095.56;;;8.59;100.00
10518;BME280;5307;42.548;22.968;2023-03-11T04:02:13;92091.00;;;8.51;100.00
10518;BME280;5307;42.548;22.968;2023-03-11T04:04:39;92090.59;;;8.58;100.00
10518;BME280;5307;42.548;22.968;2023-03-11T04:07:06;92099.56;;;8.64;100.00
10518;BME280;5307;42.548;22.968;2023-03-11T04:09:37;92096.84;;;8.64;100.00
10518;BME280;5307;42.548;22.968;2023-03-11T04:12:05;92094.44;;;8.72;100.00
10518;BME280;5307;42.548;22.968;2023-03-11T04:14:32;92086.19;;;8.60;100.00
10518;BME280;5307;42.548;22.968;2023-03-11T04:16:59;92100.38;;;8.70;100.00
10518;BME280;5307;42.548;22.968;2023-03-11T04:19:25;92098.28;;;8.59;100.00
10518;BME280;5307;42.548;22.968;2023-03-11T04:21:52;92096.16;;;8.69;100.00
10518;BME280;5307;42.548;22.968;2023-03-11T04:24:19;92095.88;;;8.67;100.00
10518;BME280;5307;42.548;22.968;2023-03-11T04:26:47;92094.13;;;8.64;100.00
10518;BME280;5307;42.548;22.968;2023-03-11T04:29:14;92098.41;;;8.71;100.00
10518;BME280;5307;42.548;22.968;2023-03-11T04:31:41;92103.31;;;8.67;100.00
10518;BME280;5307;42.548;22.968;2023-03-11T04:34:08;92114.41;;;8.63;100.00
10518;BME280;5307;42.548;22.968;2023-03-11T04:36:35;92108.88;;;8.57;100.00
10518;BME280;5307;42.548;22.968;2023-03-11T04:39:02;92113.31;;;8.55;100.00
10518;BME280;5307;42.548;22.968;2023-03-11T04:41:29;92119.84;;;8.63;100.00
10518;BME280;5307;42.548;22.968;2023-03-11T04:43:57;92118.75;;;8.55;100.00
10518;BME280;5307;42.548;22.968;2023-03-11T04:46:24;92119.84;;;8.63;100.00
10518;BME280;5307;42.548;22.968;2023-03-11T04:48:51;92118.66;;;8.70;100.00
10518;BME280;5307;42.548;22.968;2023-03-11T04:51:18;92112.91;;;8.62;100.00
10518;BME280;5307;42.548;22.968;2023-03-11T04:53:45;92109.00;;;8.69;100.00
10518;BME280;5307;42.548;22.968;2023-03-11T04:56:12;92097.81;;;8.61;100.00
10518;BME280;5307;42.548;22.968;2023-03-11T04:58:38;92111.25;;;8.70;100.00
10518;BME280;5307;42.548;22.968;2023-03-11T05:01:06;92110.50;;;8.70;100.00
10518;BME280;5307;42.548;22.968;2023-03-11T05:03:33;92124.69;;;8.74;100.00
10518;BME280;5307;42.548;22.968;2023-03-11T05:06:00;92119.84;;;8.63;100.00
10518;BME280;5307;42.548;22.968;2023-03-11T05:08:29;92125.81;;;8.87;100.00
10518;BME280;5307;42.548;22.968;2023-03-11T05:10:56;92130.91;;;8.80;100.00
10518;BME280;5307;42.548;22.968;2023-03-11T05:13:22;92144.00;;;8.76;100.00
10518;BME280;5307;42.548;22.968;2023-03-11T05:15:49;92139.97;;;8.71;100.00
10518;BME280;5307;42.548;22.968;2023-03-11T05:18:17;92140.44;;;8.70;100.00
10518;BME280;5307;42.548;22.968;2023-03-11T05:20:44;92144.25;;;8.78;100.00
10518;BME280;5307;42.548;22.968;2023-03-11T05:23:11;92139.97;;;8.71;100.00
10518;BME280;5307;42.548;22.968;2023-03-11T05:25:38;92151.97;;;8.59;100.00
10518;BME280;5307;42.548;22.968;2023-03-11T05:28:04;92158.31;;;8.56;100.00
10518;BME280;5307;42.548;22.968;2023-03-11T05:30:31;92157.41;;;8.59;100.00
10518;BME280;5307;42.548;22.968;2023-03-11T05:32:58;92159.75;;;8.72;100.00
10518;BME280;5307;42.548;22.968;2023-03-11T05:35:26;92157.88;;;8.78;100.00
10518;BME280;5307;42.548;22.968;2023-03-11T05:37:53;92159.91;;;8.83;100.00
10518;BME280;5307;42.548;22.968;2023-03-11T05:40:20;92155.06;;;8.72;100.00
10518;BME280;5307;42.548;22.968;2023-03-11T05:42:47;92157.94;;;8.63;100.00
10518;BME280;5307;42.548;22.968;2023-03-11T05:45:14;92167.91;;;8.72;100.00
10518;BME280;5307;42.548;22.968;2023-03-11T05:47:41;92163.84;;;8.82;100.00
10518;BME280;5307;42.548;22.968;2023-03-11T05:50:09;92174.38;;;8.95;100.00
10518;BME280;5307;42.548;22.968;2023-03-11T05:52:37;92176.31;;;8.88;100.00
10518;BME280;5307;42.548;22.968;2023-03-11T05:55:05;92171.78;;;8.85;100.00
10518;BME280;5307;42.548;22.968;2023-03-11T05:57:33;92181.53;;;8.92;100.00
10518;BME280;5307;42.548;22.968;2023-03-11T06:00:00;92172.22;;;8.78;100.00
10518;BME280;5307;42.548;22.968;2023-03-11T06:02:28;92177.78;;;8.69;100.00
10518;BME280;5307;42.548;22.968;2023-03-11T06:04:55;92180.13;;;8.76;100.00
10518;BME280;5307;42.548;22.968;2023-03-11T06:07:22;92177.09;;;8.95;100.00
10518;BME280;5307;42.548;22.968;2023-03-11T06:09:50;92182.69;;;9.06;100.00
10518;BME280;5307;42.548;22.968;2023-03-11T06:12:17;92176.91;;;8.98;100.00
10518;BME280;5307;42.548;22.968;2023-03-11T06:14:43;92175.66;;;8.99;100.00
10518;BME280;5307;42.548;22.968;2023-03-11T06:17:10;92179.56;;;8.92;100.00
10518;BME280;5307;42.548;22.968;2023-03-11T06:19:37;92178.88;;;8.98;100.00
10518;BME280;5307;42.548;22.968;2023-03-11T06:22:04;92173.28;;;9.07;100.00
10518;BME280;5307;42.548;22.968;2023-03-11T06:24:31;92178.38;;;8.99;100.00
10518;BME280;5307;42.548;22.968;2023-03-11T06:26:59;92175.75;;;9.05;100.00
10518;BME280;5307;42.548;22.968;2023-03-11T06:29:26;92179.47;;;9.07;100.00
10518;BME280;5307;42.548;22.968;2023-03-11T06:31:53;92181.94;;;9.05;100.00
10518;BME280;5307;42.548;22.968;2023-03-11T06:34:21;92173.81;;;9.11;100.00
10518;BME280;5307;42.548;22.968;2023-03-11T06:36:48;92175.06;;;9.10;100.00
10518;BME280;5307;42.548;22.968;2023-03-11T06:39:15;92172.59;;;9.12;100.00
10518;BME280;5307;42.548;22.968;2023-03-11T06:41:41;92178.13;;;9.17;100.00
10518;BME280;5307;42.548;22.968;2023-03-11T06:44:10;92181.31;;;9.16;100.00
10518;BME280;5307;42.548;22.968;2023-03-11T06:46:37;92174.56;;;9.11;100.00
10518;BME280;5307;42.548;22.968;2023-03-11T06:49:04;92177.38;;;9.17;100.00
10518;BME280;5307;42.548;22.968;2023-03-11T06:51:31;92179.47;;;9.07;100.00
10518;BME280;5307;42.548;22.968;2023-03-11T06:53:58;92173.25;;;9.27;100.00
10518;BME280;5307;42.548;22.968;2023-03-11T06:56:25;92176.78;;;9.33;100.00
10518;BME280;5307;42.548;22.968;2023-03-11T06:58:52;92179.56;;;9.39;100.00
10518;BME280;5307;42.548;22.968;2023-03-11T07:01:22;92183.72;;;9.34;100.00
10518;BME280;5307;42.548;22.968;2023-03-11T07:03:50;92174.34;;;9.35;100.00
10518;BME280;5307;42.548;22.968;2023-03-11T07:06:19;92183.56;;;9.69;100.00
10518;BME280;5307;42.548;22.968;2023-03-11T07:08:47;92177.91;;;9.73;100.00
10518;BME280;5307;42.548;22.968;2023-03-11T07:11:16;92174.38;;;9.67;100.00
10518;BME280;5307;42.548;22.968;2023-03-11T07:13:44;92173.34;;;9.90;100.00
10518;BME280;5307;42.548;22.968;2023-03-11T07:16:13;92168.03;;;10.12;100.00
10518;BME280;5307;42.548;22.968;2023-03-11T07:18:43;92170.50;;;10.42;100.00
10518;BME280;5307;42.548;22.968;2023-03-11T07:21:12;92154.41;;;10.98;100.00
10518;BME280;5307;42.548;22.968;2023-03-11T07:23:40;92145.78;;;11.22;100.00
10518;BME280;5307;42.548;22.968;2023-03-11T07:26:08;92138.66;;;11.58;100.00
10518;BME280;5307;42.548;22.968;2023-03-11T07:28:35;92139.38;;;11.58;96.80
10518;BME280;5307;42.548;22.968;2023-03-11T07:31:07;92129.72;;;11.91;93.81
10518;BME280;5307;42.548;22.968;2023-03-11T07:33:34;92126.44;;;12.43;91.43
10518;BME280;5307;42.548;22.968;2023-03-11T07:36:06;92114.44;;;12.68;85.81
10518;BME280;5307;42.548;22.968;2023-03-11T07:38:34;92119.22;;;12.45;81.80
10518;BME280;5307;42.548;22.968;2023-03-11T07:41:02;92113.16;;;12.75;80.85
10518;BME280;5307;42.548;22.968;2023-03-11T07:43:28;92110.00;;;13.23;80.33
10518;BME280;5307;42.548;22.968;2023-03-11T07:46:03;92107.06;;;13.04;78.07
10518;BME280;5307;42.548;22.968;2023-03-11T07:48:30;92106.00;;;13.24;78.89
10518;BME280;5307;42.548;22.968;2023-03-11T07:51:05;92096.75;;;13.69;77.92
10518;BME280;5307;42.548;22.968;2023-03-11T07:53:33;92097.44;;;13.75;75.96
10518;BME280;5307;42.548;22.968;2023-03-11T07:56:01;92096.13;;;13.46;73.46
10518;BME280;5307;42.548;22.968;2023-03-11T07:58:28;92084.00;;;13.71;73.68
10518;BME280;5307;42.548;22.968;2023-03-11T08:00:55;92083.31;;;14.19;73.13
10518;BME280;5307;42.548;22.968;2023-03-11T08:03:23;92086.13;;;14.44;74.69
10518;BME280;5307;42.548;22.968;2023-03-11T08:05:50;92079.84;;;13.94;73.94
10518;BME280;5307;42.548;22.968;2023-03-11T08:08:19;92075.97;;;14.09;73.71
10518;BME280;5307;42.548;22.968;2023-03-11T08:10:46;92072.63;;;14.16;69.64
10518;BME280;5307;42.548;22.968;2023-03-11T08:13:13;92071.34;;;14.47;68.69
10518;BME280;5307;42.548;22.968;2023-03-11T08:15:39;92066.44;;;14.64;66.88
10518;BME280;5307;42.548;22.968;2023-03-11T08:18:06;92060.47;;;14.11;68.62
10518;BME280;5307;42.548;22.968;2023-03-11T08:20:33;92057.31;;;14.26;68.43
10518;BME280;5307;42.548;22.968;2023-03-11T08:23:01;92055.56;;;14.96;71.41
10518;BME280;5307;42.548;22.968;2023-03-11T08:25:29;92054.94;;;13.87;68.91
10518;BME280;5307;42.548;22.968;2023-03-11T08:27:56;92058.47;;;13.82;72.05
10518;BME280;5307;42.548;22.968;2023-03-11T08:30:23;92048.13;;;14.48;70.81
10518;BME280;5307;42.548;22.968;2023-03-11T08:32:50;92047.81;;;14.03;69.78
10518;BME280;5307;42.548;22.968;2023-03-11T08:35:17;92043.91;;;13.62;71.61
10518;BME280;5307;42.548;22.968;2023-03-11T08:37:43;92049.66;;;12.82;72.00
10518;BME280;5307;42.548;22.968;2023-03-11T08:40:11;92045.97;;;12.68;73.76
10518;BME280;5307;42.548;22.968;2023-03-11T08:42:40;92049.47;;;12.69;74.57
10518;BME280;5307;42.548;22.968;2023-03-11T08:45:08;92045.50;;;13.11;72.85
10518;BME280;5307;42.548;22.968;2023-03-11T08:47:36;92039.81;;;13.03;71.84
10518;BME280;5307;42.548;22.968;2023-03-11T08:50:04;92041.13;;;13.68;72.79
10518;BME280;5307;42.548;22.968;2023-03-11T08:52:32;92037.38;;;13.71;75.01
10518;BME280;5307;42.548;22.968;2023-03-11T08:54:59;92019.88;;;13.74;73.74
10518;BME280;5307;42.548;22.968;2023-03-11T08:57:25;92013.47;;;13.96;71.03
10518;BME280;5307;42.548;22.968;2023-03-11T08:59:57;92022.19;;;14.43;70.47
10518;BME280;5307;42.548;22.968;2023-03-11T09:02:23;92007.78;;;14.99;63.55
10518;BME280;5307;42.548;22.968;2023-03-11T09:04:50;92019.97;;;15.04;63.80
10518;BME280;5307;42.548;22.968;2023-03-11T09:07:18;92017.06;;;14.96;61.43
10518;BME280;5307;42.548;22.968;2023-03-11T09:09:45;92009.84;;;14.74;62.34
10518;BME280;5307;42.548;22.968;2023-03-11T09:12:12;92012.94;;;14.46;61.82
10518;BME280;5307;42.548;22.968;2023-03-11T09:14:39;92000.91;;;14.49;62.09
10518;BME280;5307;42.548;22.968;2023-03-11T09:17:08;91999.13;;;13.79;61.34
10518;BME280;5307;42.548;22.968;2023-03-11T09:19:36;91992.28;;;13.66;61.38
10518;BME280;5307;42.548;22.968;2023-03-11T09:22:04;92006.00;;;14.15;62.95
10518;BME280;5307;42.548;22.968;2023-03-11T09:24:32;92004.22;;;14.85;66.18
10518;BME280;5307;42.548;22.968;2023-03-11T09:26:59;91998.34;;;14.57;63.02
10518;BME280;5307;42.548;22.968;2023-03-11T09:29:26;91999.63;;;13.83;58.68
10518;BME280;5307;42.548;22.968;2023-03-11T09:31:53;91996.22;;;14.20;64.12
10518;BME280;5307;42.548;22.968;2023-03-11T09:34:21;91999.34;;;13.56;59.04
10518;BME280;5307;42.548;22.968;2023-03-11T09:36:48;91997.78;;;13.66;59.28
10518;BME280;5307;42.548;22.968;2023-03-11T09:39:15;91995.66;;;13.48;58.84
10518;BME280;5307;42.548;22.968;2023-03-11T09:41:47;92000.16;;;13.51;61.59
10518;BME280;5307;42.548;22.968;2023-03-11T09:44:20;91989.63;;;13.55;60.73
10518;BME280;5307;42.548;22.968;2023-03-11T09:47:00;91991.28;;;13.64;60.44
10518;BME280;5307;42.548;22.968;2023-03-11T09:49:49;92005.81;;;13.59;61.39
10518;BME280;5307;42.548;22.968;2023-03-11T09:52:26;92001.78;;;13.30;61.12
10518;BME280;5307;42.548;22.968;2023-03-11T09:54:57;92006.63;;;13.48;61.78
10518;BME280;5307;42.548;22.968;2023-03-11T09:57:28;91980.31;;;13.34;58.61
10518;BME280;5307;42.548;22.968;2023-03-11T09:59:58;91999.56;;;13.58;62.21
10518;BME280;5307;42.548;22.968;2023-03-11T10:02:27;92004.09;;;13.56;60.49
10518;BME280;5307;42.548;22.968;2023-03-11T10:04:57;92002.09;;;13.56;60.22
10518;BME280;5307;42.548;22.968;2023-03-11T10:07:30;92009.31;;;13.24;62.91
10518;BME280;5307;42.548;22.968;2023-03-11T10:09:59;92010.09;;;13.19;63.19
10518;BME280;5307;42.548;22.968;2023-03-11T10:12:39;92008.91;;;13.03;62.12
10518;BME280;5307;42.548;22.968;2023-03-11T10:15:17;92010.91;;;13.02;60.88
10518;BME280;5307;42.548;22.968;2023-03-11T10:17:55;92013.72;;;12.91;62.47
10518;BME280;5307;42.548;22.968;2023-03-11T10:20:28;92016.41;;;13.02;62.10
10518;BME280;5307;42.548;22.968;2023-03-11T10:23:07;92019.19;;;12.97;62.02
10518;BME280;5307;42.548;22.968;2023-03-11T10:25:44;92029.28;;;12.66;61.50
10518;BME280;5307;42.548;22.968;2023-03-11T10:28:16;92022.50;;;12.84;63.42
10518;BME280;5307;42.548;22.968;2023-03-11T10:30:46;92024.16;;;12.98;63.23
10518;BME280;5307;42.548;22.968;2023-03-11T10:33:20;92020.16;;;13.41;63.17
10518;BME280;5307;42.548;22.968;2023-03-11T10:35:52;92011.06;;;13.21;61.08
10518;BME280;5307;42.548;22.968;2023-03-11T10:38:22;92002.81;;;13.27;61.13
10518;BME280;5307;42.548;22.968;2023-03-11T10:40:54;92013.50;;;13.60;61.34
10518;BME280;5307;42.548;22.968;2023-03-11T10:43:26;92014.69;;;13.71;60.60
10518;BME280;5307;42.548;22.968;2023-03-11T10:45:54;91997.03;;;13.90;60.21
10518;BME280;5307;42.548;22.968;2023-03-11T10:48:23;92011.69;;;14.23;59.62
10518;BME280;5307;42.548;22.968;2023-03-11T10:50:56;92008.91;;;13.74;57.36
10518;BME280;5307;42.548;22.968;2023-03-11T10:53:24;92004.44;;;13.71;57.95
10518;BME280;5307;42.548;22.968;2023-03-11T10:55:52;92005.75;;;13.64;58.00
10518;BME280;5307;42.548;22.968;2023-03-11T10:58:21;91997.97;;;13.99;62.66
10518;BME280;5307;42.548;22.968;2023-03-11T11:00:59;91983.50;;;13.98;63.60
10518;BME280;5307;42.548;22.968;2023-03-11T11:03:27;91997.78;;;13.91;58.73
10518;BME280;5307;42.548;22.968;2023-03-11T11:06:01;91994.91;;;13.78;58.97
10518;BME280;5307;42.548;22.968;2023-03-11T11:08:28;91999.63;;;13.53;58.24
10518;BME280;5307;42.548;22.968;2023-03-11T11:10:56;92000.41;;;13.48;58.08
10518;BME280;5307;42.548;22.968;2023-03-11T11:13:24;91988.31;;;13.62;59.13
10518;BME280;5307;42.548;22.968;2023-03-11T11:15:58;91986.34;;;13.87;59.40
10518;BME280;5307;42.548;22.968;2023-03-11T11:18:28;91982.41;;;13.82;60.52
10518;BME280;5307;42.548;22.968;2023-03-11T11:21:01;91978.09;;;13.62;57.73
10518;BME280;5307;42.548;22.968;2023-03-11T11:23:35;91973.25;;;13.44;56.91
10518;BME280;5307;42.548;22.968;2023-03-11T11:26:04;91968.16;;;13.59;58.68
10518;BME280;5307;42.548;22.968;2023-03-11T11:28:32;91968.03;;;13.71;57.61
10518;BME280;5307;42.548;22.968;2023-03-11T11:31:00;91964.50;;;14.00;59.28
10518;BME280;5307;42.548;22.968;2023-03-11T11:33:30;91974.91;;;14.07;58.36
10518;BME280;5307;42.548;22.968;2023-03-11T11:36:00;91958.84;;;13.92;57.53
10518;BME280;5307;42.548;22.968;2023-03-11T11:38:30;91957.53;;;13.75;57.10
10518;BME280;5307;42.548;22.968;2023-03-11T11:41:00;91940.16;;;13.66;58.41
10518;BME280;5307;42.548;22.968;2023-03-11T11:43:45;91938.84;;;13.73;59.96
10518;BME280;5307;42.548;22.968;2023-03-11T11:46:19;91934.94;;;13.87;57.86
10518;BME280;5307;42.548;22.968;2023-03-11T11:48:54;91936.72;;;13.85;61.26
10518;BME280;5307;42.548;22.968;2023-03-11T11:51:25;91927.75;;;13.84;57.60
10518;BME280;5307;42.548;22.968;2023-03-11T11:53:58;91924.38;;;13.73;57.12
10518;BME280;5307;42.548;22.968;2023-03-11T11:56:39;91911.25;;;13.65;56.46
10518;BME280;5307;42.548;22.968;2023-03-11T11:59:12;91920.72;;;13.64;57.11
10518;BME280;5307;42.548;22.968;2023-03-11T12:01:49;91908.34;;;14.01;55.98
10518;BME280;5307;42.548;22.968;2023-03-11T12:04:28;91915.00;;;13.87;55.14
10518;BME280;5307;42.548;22.968;2023-03-11T12:07:05;91903.69;;;13.72;53.46
10518;BME280;5307;42.548;22.968;2023-03-11T12:09:39;91932.25;;;13.57;51.17
10518;BME280;5307;42.548;22.968;2023-03-11T12:12:19;91929.09;;;13.48;53.39
10518;BME280;5307;42.548;22.968;2023-03-11T12:14:53;91925.34;;;13.51;55.15
10518;BME280;5307;42.548;22.968;2023-03-11T12:17:23;91909.81;;;13.59;54.54
10518;BME280;5307;42.548;22.968;2023-03-11T12:19:54;91907.00;;;13.40;55.07
10518;BME280;5307;42.548;22.968;2023-03-11T12:22:56;91899.47;;;13.46;56.47
10518;BME280;5307;42.548;22.968;2023-03-11T12:25:32;91912.94;;;13.44;60.52
10518;BME280;5307;42.548;22.968;2023-03-11T12:28:13;91913.16;;;13.16;56.46
10518;BME280;5307;42.548;22.968;2023-03-11T12:30:44;91912.81;;;13.31;56.88
10518;BME280;5307;42.548;22.968;2023-03-11T12:33:15;91916.59;;;13.28;61.24
10518;BME280;5307;42.548;22.968;2023-03-11T12:35:53;91920.22;;;13.36;59.30
10518;BME280;5307;42.548;22.968;2023-03-11T12:38:27;91914.06;;;13.30;61.46
10518;BME280;5307;42.548;22.968;2023-03-11T12:41:01;91919.78;;;13.32;61.58
10518;BME280;5307;42.548;22.968;2023-03-11T12:53:01;91930.19;;;13.39;59.42
10518;BME280;5307;42.548;22.968;2023-03-11T12:55:35;91917.09;;;13.51;58.71
10518;BME280;5307;42.548;22.968;2023-03-11T12:58:31;91914.78;;;13.60;58.77
10518;BME280;5307;42.548;22.968;2023-03-11T13:01:29;91923.28;;;13.57;57.48
10518;BME280;5307;42.548;22.968;2023-03-11T13:04:05;91920.50;;;13.38;59.24
10518;BME280;5307;42.548;22.968;2023-03-11T13:09:33;91917.03;;;13.32;57.27
10518;BME280;5307;42.548;22.968;2023-03-11T13:12:00;91911.91;;;13.17;60.14
10518;BME280;5307;42.548;22.968;2023-03-11T13:14:29;91903.00;;;13.11;58.83
10518;BME280;5307;42.548;22.968;2023-03-11T13:17:22;91911.44;;;13.13;57.42
10518;BME280;5307;42.548;22.968;2023-03-11T13:19:54;91912.72;;;13.12;59.85
10518;BME280;5307;42.548;22.968;2023-03-11T13:22:42;91914.78;;;13.00;58.45
10518;BME280;5307;42.548;22.968;2023-03-11T13:25:28;91917.59;;;12.89;58.15